sensor_id;sensor_type;location;lat;lon;timestamp;P1;durP1;ratioP1;P2;durP2;ratioP2
9720;SDS011;4899;42.644;23.366;2022-08-11T00:00:59;6.20;;;5.70;;
9720;SDS011;4899;42.644;23.366;2022-08-11T00:03:32;6.10;;;5.50;;
9720;SDS011;4899;42.644;23.366;2022-08-11T00:06:01;5.97;;;5.47;;
9720;SDS011;4899;42.644;23.366;2022-08-11T00:08:29;6.43;;;5.80;;
9720;SDS011;4899;42.644;23.366;2022-08-11T00:10:58;6.53;;;5.37;;
9720;SDS011;4899;42.644;23.366;2022-08-11T00:13:31;5.23;;;4.80;;
9720;SDS011;4899;42.644;23.366;2022-08-11T00:15:59;6.63;;;6.00;;
9720;SDS011;4899;42.644;23.366;2022-08-11T00:18:28;5.70;;;5.10;;
9720;SDS011;4899;42.644;23.366;2022-08-11T00:21:05;5.90;;;5.40;;
9720;SDS011;4899;42.644;23.366;2022-08-11T00:23:32;5.90;;;5.30;;
9720;SDS011;4899;42.644;23.366;2022-08-11T00:26:05;5.70;;;5.20;;
9720;SDS011;4899;42.644;23.366;2022-08-11T00:28:33;6.27;;;5.50;;
9720;SDS011;4899;42.644;23.366;2022-08-11T00:31:02;5.50;;;5.03;;
9720;SDS011;4899;42.644;23.366;2022-08-11T00:33:32;5.80;;;5.30;;
9720;SDS011;4899;42.644;23.366;2022-08-11T00:36:02;6.10;;;5.60;;
9720;SDS011;4899;42.644;23.366;2022-08-11T00:38:34;6.80;;;6.20;;
9720;SDS011;4899;42.644;23.366;2022-08-11T00:41:10;6.37;;;5.73;;
9720;SDS011;4899;42.644;23.366;2022-08-11T00:43:50;7.13;;;6.07;;
9720;SDS011;4899;42.644;23.366;2022-08-11T00:46:34;6.57;;;5.83;;
9720;SDS011;4899;42.644;23.366;2022-08-11T00:49:10;6.53;;;5.93;;
9720;SDS011;4899;42.644;23.366;2022-08-11T00:51:56;6.17;;;5.67;;
9720;SDS011;4899;42.644;23.366;2022-08-11T01:00:51;6.70;;;6.03;;
9720;SDS011;4899;42.644;23.366;2022-08-11T01:03:42;7.17;;;5.90;;
9720;SDS011;4899;42.644;23.366;2022-08-11T01:06:45;8.20;;;6.40;;
9720;SDS011;4899;42.644;23.366;2022-08-11T01:09:26;8.07;;;6.47;;
9720;SDS011;4899;42.644;23.366;2022-08-11T01:12:04;6.43;;;5.93;;
9720;SDS011;4899;42.644;23.366;2022-08-11T01:30:16;7.10;;;6.43;;
9720;SDS011;4899;42.644;23.366;2022-08-11T01:42:41;6.67;;;6.17;;
9720;SDS011;4899;42.644;23.366;2022-08-11T01:46:05;6.57;;;6.07;;
9720;SDS011;4899;42.644;23.366;2022-08-11T01:48:40;6.80;;;6.20;;
9720;SDS011;4899;42.644;23.366;2022-08-11T01:51:23;8.13;;;6.83;;
9720;SDS011;4899;42.644;23.366;2022-08-11T01:54:02;6.90;;;6.27;;
9720;SDS011;4899;42.644;23.366;2022-08-11T01:56:39;7.87;;;7.07;;
9720;SDS011;4899;42.644;23.366;2022-08-11T01:59:16;7.20;;;6.57;;
9720;SDS011;4899;42.644;23.366;2022-08-11T02:04:45;8.17;;;7.37;;
9720;SDS011;4899;42.644;23.366;2022-08-11T02:07:25;7.73;;;6.93;;
9720;SDS011;4899;42.644;23.366;2022-08-11T02:10:06;7.60;;;6.90;;
9720;SDS011;4899;42.644;23.366;2022-08-11T02:13:03;8.37;;;7.63;;
9720;SDS011;4899;42.644;23.366;2022-08-11T02:15:42;7.57;;;6.90;;
9720;SDS011;4899;42.644;23.366;2022-08-11T02:18:15;7.50;;;6.90;;
9720;SDS011;4899;42.644;23.366;2022-08-11T02:20:47;7.47;;;6.87;;
9720;SDS011;4899;42.644;23.366;2022-08-11T02:23:38;7.53;;;6.80;;
9720;SDS011;4899;42.644;23.366;2022-08-11T02:26:15;7.50;;;6.63;;
9720;SDS011;4899;42.644;23.366;2022-08-11T02:31:39;7.83;;;7.10;;
9720;SDS011;4899;42.644;23.366;2022-08-11T02:34:31;9.67;;;7.07;;
9720;SDS011;4899;42.644;23.366;2022-08-11T02:37:10;6.80;;;6.20;;
9720;SDS011;4899;42.644;23.366;2022-08-11T02:39:45;6.80;;;6.27;;
9720;SDS011;4899;42.644;23.366;2022-08-11T02:42:22;7.30;;;6.70;;
9720;SDS011;4899;42.644;23.366;2022-08-11T02:44:58;7.97;;;7.17;;
9720;SDS011;4899;42.644;23.366;2022-08-11T02:47:43;8.70;;;7.27;;
9720;SDS011;4899;42.644;23.366;2022-08-11T02:50:32;7.60;;;6.90;;
9720;SDS011;4899;42.644;23.366;2022-08-11T02:53:07;7.70;;;6.83;;
9720;SDS011;4899;42.644;23.366;2022-08-11T02:55:43;8.07;;;7.30;;
9720;SDS011;4899;42.644;23.366;2022-08-11T02:58:20;9.53;;;6.93;;
9720;SDS011;4899;42.644;23.366;2022-08-11T03:00:59;8.87;;;7.97;;
9720;SDS011;4899;42.644;23.366;2022-08-11T03:03:45;7.67;;;6.97;;
9720;SDS011;4899;42.644;23.366;2022-08-11T03:06:19;7.97;;;7.27;;
9720;SDS011;4899;42.644;23.366;2022-08-11T03:08:57;8.67;;;7.43;;
9720;SDS011;4899;42.644;23.366;2022-08-11T03:11:41;7.63;;;7.03;;
9720;SDS011;4899;42.644;23.366;2022-08-11T03:14:34;8.43;;;6.87;;
9720;SDS011;4899;42.644;23.366;2022-08-11T03:17:31;7.77;;;7.07;;
9720;SDS011;4899;42.644;23.366;2022-08-11T03:20:16;7.60;;;6.87;;
9720;SDS011;4899;42.644;23.366;2022-08-11T03:22:59;8.63;;;7.90;;
9720;SDS011;4899;42.644;23.366;2022-08-11T03:25:37;9.27;;;8.47;;
9720;SDS011;4899;42.644;23.366;2022-08-11T03:28:13;8.87;;;8.00;;
9720;SDS011;4899;42.644;23.366;2022-08-11T03:30:53;10.10;;;7.93;;
9720;SDS011;4899;42.644;23.366;2022-08-11T03:33:34;10.40;;;9.40;;
9720;SDS011;4899;42.644;23.366;2022-08-11T03:36:34;8.77;;;7.80;;
9720;SDS011;4899;42.644;23.366;2022-08-11T03:39:19;9.37;;;8.33;;
9720;SDS011;4899;42.644;23.366;2022-08-11T03:41:56;11.40;;;7.53;;
9720;SDS011;4899;42.644;23.366;2022-08-11T03:44:37;8.70;;;7.80;;
9720;SDS011;4899;42.644;23.366;2022-08-11T03:47:23;8.73;;;7.87;;
9720;SDS011;4899;42.644;23.366;2022-08-11T03:50:04;9.23;;;8.37;;
9720;SDS011;4899;42.644;23.366;2022-08-11T03:52:47;9.20;;;8.30;;
9720;SDS011;4899;42.644;23.366;2022-08-11T03:55:22;8.70;;;7.80;;
9720;SDS011;4899;42.644;23.366;2022-08-11T04:04:14;9.47;;;8.57;;
9720;SDS011;4899;42.644;23.366;2022-08-11T04:07:26;8.20;;;7.50;;
9720;SDS011;4899;42.644;23.366;2022-08-11T04:10:28;8.97;;;8.10;;
9720;SDS011;4899;42.644;23.366;2022-08-11T04:16:43;8.97;;;8.20;;
9720;SDS011;4899;42.644;23.366;2022-08-11T04:19:31;9.00;;;8.07;;
9720;SDS011;4899;42.644;23.366;2022-08-11T04:22:36;9.07;;;7.67;;
9720;SDS011;4899;42.644;23.366;2022-08-11T04:28:41;8.23;;;7.43;;
9720;SDS011;4899;42.644;23.366;2022-08-11T04:31:34;8.57;;;7.77;;
9720;SDS011;4899;42.644;23.366;2022-08-11T04:34:04;9.63;;;8.10;;
9720;SDS011;4899;42.644;23.366;2022-08-11T04:36:54;8.90;;;7.93;;
9720;SDS011;4899;42.644;23.366;2022-08-11T04:49:05;9.10;;;8.13;;
9720;SDS011;4899;42.644;23.366;2022-08-11T04:55:39;9.40;;;8.40;;
9720;SDS011;4899;42.644;23.366;2022-08-11T04:58:48;8.87;;;8.07;;
9720;SDS011;4899;42.644;23.366;2022-08-11T05:01:48;8.47;;;7.67;;
9720;SDS011;4899;42.644;23.366;2022-08-11T05:04:44;10.97;;;8.63;;
9720;SDS011;4899;42.644;23.366;2022-08-11T05:07:56;8.90;;;8.00;;
9720;SDS011;4899;42.644;23.366;2022-08-11T05:14:00;8.00;;;7.20;;
9720;SDS011;4899;42.644;23.366;2022-08-11T05:17:04;7.43;;;6.83;;
9720;SDS011;4899;42.644;23.366;2022-08-11T05:19:54;8.03;;;7.13;;
9720;SDS011;4899;42.644;23.366;2022-08-11T05:22:41;8.80;;;7.50;;
9720;SDS011;4899;42.644;23.366;2022-08-11T05:25:31;7.70;;;7.00;;
9720;SDS011;4899;42.644;23.366;2022-08-11T05:28:29;9.10;;;7.10;;
9720;SDS011;4899;42.644;23.366;2022-08-11T05:31:15;12.40;;;7.17;;
9720;SDS011;4899;42.644;23.366;2022-08-11T05:34:08;6.67;;;6.10;;
9720;SDS011;4899;42.644;23.366;2022-08-11T05:36:56;8.93;;;6.50;;
9720;SDS011;4899;42.644;23.366;2022-08-11T05:39:30;7.23;;;6.57;;
9720;SDS011;4899;42.644;23.366;2022-08-11T05:42:16;7.87;;;7.17;;
9720;SDS011;4899;42.644;23.366;2022-08-11T05:45:08;7.87;;;7.07;;
9720;SDS011;4899;42.644;23.366;2022-08-11T05:47:56;9.60;;;6.57;;
9720;SDS011;4899;42.644;23.366;2022-08-11T05:50:41;8.37;;;7.57;;
9720;SDS011;4899;42.644;23.366;2022-08-11T05:53:33;7.47;;;6.77;;
9720;SDS011;4899;42.644;23.366;2022-08-11T05:56:18;12.20;;;7.97;;
9720;SDS011;4899;42.644;23.366;2022-08-11T05:58:46;8.13;;;7.43;;
9720;SDS011;4899;42.644;23.366;2022-08-11T06:01:21;8.50;;;7.60;;
9720;SDS011;4899;42.644;23.366;2022-08-11T06:03:52;13.77;;;8.10;;
9720;SDS011;4899;42.644;23.366;2022-08-11T06:06:45;9.63;;;7.13;;
9720;SDS011;4899;42.644;23.366;2022-08-11T06:09:25;9.60;;;7.07;;
9720;SDS011;4899;42.644;23.366;2022-08-11T06:11:55;7.60;;;6.90;;
9720;SDS011;4899;42.644;23.366;2022-08-11T06:14:25;6.90;;;6.03;;
9720;SDS011;4899;42.644;23.366;2022-08-11T06:16:56;8.10;;;6.23;;
9720;SDS011;4899;42.644;23.366;2022-08-11T06:19:31;6.43;;;5.87;;
9720;SDS011;4899;42.644;23.366;2022-08-11T06:22:00;9.40;;;7.13;;
9720;SDS011;4899;42.644;23.366;2022-08-11T06:24:29;7.63;;;6.90;;
9720;SDS011;4899;42.644;23.366;2022-08-11T06:26:57;6.33;;;5.60;;
9720;SDS011;4899;42.644;23.366;2022-08-11T06:29:26;6.30;;;5.70;;
9720;SDS011;4899;42.644;23.366;2022-08-11T06:31:56;7.53;;;5.50;;
9720;SDS011;4899;42.644;23.366;2022-08-11T06:34:31;7.07;;;5.73;;
9720;SDS011;4899;42.644;23.366;2022-08-11T06:37:17;8.13;;;6.03;;
9720;SDS011;4899;42.644;23.366;2022-08-11T06:39:56;7.13;;;5.40;;
9720;SDS011;4899;42.644;23.366;2022-08-11T06:42:37;6.57;;;4.80;;
9720;SDS011;4899;42.644;23.366;2022-08-11T06:45:15;6.13;;;5.00;;
9720;SDS011;4899;42.644;23.366;2022-08-11T06:48:01;7.37;;;5.63;;
9720;SDS011;4899;42.644;23.366;2022-08-11T06:50:31;5.53;;;5.03;;
9720;SDS011;4899;42.644;23.366;2022-08-11T06:53:17;5.20;;;4.80;;
9720;SDS011;4899;42.644;23.366;2022-08-11T06:55:45;7.70;;;5.13;;
9720;SDS011;4899;42.644;23.366;2022-08-11T06:58:33;6.00;;;5.50;;
9720;SDS011;4899;42.644;23.366;2022-08-11T07:01:22;5.37;;;4.97;;
9720;SDS011;4899;42.644;23.366;2022-08-11T07:04:04;7.17;;;4.80;;
9720;SDS011;4899;42.644;23.366;2022-08-11T07:06:37;6.73;;;5.07;;
9720;SDS011;4899;42.644;23.366;2022-08-11T07:09:32;5.20;;;4.77;;
9720;SDS011;4899;42.644;23.366;2022-08-11T07:12:53;5.13;;;4.47;;
9720;SDS011;4899;42.644;23.366;2022-08-11T07:15:41;4.83;;;4.40;;
9720;SDS011;4899;42.644;23.366;2022-08-11T07:18:13;4.33;;;3.93;;
9720;SDS011;4899;42.644;23.366;2022-08-11T07:21:10;3.97;;;3.57;;
9720;SDS011;4899;42.644;23.366;2022-08-11T07:23:57;4.13;;;3.70;;
9720;SDS011;4899;42.644;23.366;2022-08-11T07:26:46;4.47;;;4.07;;
9720;SDS011;4899;42.644;23.366;2022-08-11T07:29:33;5.50;;;3.93;;
9720;SDS011;4899;42.644;23.366;2022-08-11T07:32:07;4.13;;;3.80;;
9720;SDS011;4899;42.644;23.366;2022-08-11T07:34:41;4.77;;;4.27;;
9720;SDS011;4899;42.644;23.366;2022-08-11T07:37:15;4.43;;;4.03;;
9720;SDS011;4899;42.644;23.366;2022-08-11T07:39:45;6.77;;;3.90;;
9720;SDS011;4899;42.644;23.366;2022-08-11T07:42:14;4.50;;;4.10;;
9720;SDS011;4899;42.644;23.366;2022-08-11T07:44:46;5.50;;;4.00;;
9720;SDS011;4899;42.644;23.366;2022-08-11T07:47:32;5.60;;;4.03;;
9720;SDS011;4899;42.644;23.366;2022-08-11T07:50:19;4.87;;;4.07;;
9720;SDS011;4899;42.644;23.366;2022-08-11T07:53:05;4.80;;;4.40;;
9720;SDS011;4899;42.644;23.366;2022-08-11T07:55:32;3.90;;;3.70;;
9720;SDS011;4899;42.644;23.366;2022-08-11T07:58:02;5.00;;;4.53;;
9720;SDS011;4899;42.644;23.366;2022-08-11T08:00:47;4.37;;;4.07;;
9720;SDS011;4899;42.644;23.366;2022-08-11T08:03:33;4.33;;;3.93;;
9720;SDS011;4899;42.644;23.366;2022-08-11T08:06:17;4.37;;;3.90;;
9720;SDS011;4899;42.644;23.366;2022-08-11T08:09:03;6.70;;;3.77;;
9720;SDS011;4899;42.644;23.366;2022-08-11T08:11:49;4.47;;;3.87;;
9720;SDS011;4899;42.644;23.366;2022-08-11T08:14:34;4.63;;;4.23;;
9720;SDS011;4899;42.644;23.366;2022-08-11T08:17:19;4.60;;;4.30;;
9720;SDS011;4899;42.644;23.366;2022-08-11T08:20:05;4.80;;;4.40;;
9720;SDS011;4899;42.644;23.366;2022-08-11T08:22:34;5.23;;;4.37;;
9720;SDS011;4899;42.644;23.366;2022-08-11T08:25:04;6.70;;;4.40;;
9720;SDS011;4899;42.644;23.366;2022-08-11T08:27:32;4.77;;;4.00;;
9720;SDS011;4899;42.644;23.366;2022-08-11T08:30:00;4.23;;;3.83;;
9720;SDS011;4899;42.644;23.366;2022-08-11T08:32:46;3.97;;;3.63;;
9720;SDS011;4899;42.644;23.366;2022-08-11T08:35:13;4.57;;;4.17;;
9720;SDS011;4899;42.644;23.366;2022-08-11T08:37:41;4.00;;;3.70;;
9720;SDS011;4899;42.644;23.366;2022-08-11T08:40:09;4.10;;;3.70;;
9720;SDS011;4899;42.644;23.366;2022-08-11T08:42:39;3.83;;;3.53;;
9720;SDS011;4899;42.644;23.366;2022-08-11T08:45:11;4.10;;;3.80;;
9720;SDS011;4899;42.644;23.366;2022-08-11T08:47:44;4.67;;;4.20;;
9720;SDS011;4899;42.644;23.366;2022-08-11T08:50:13;4.67;;;4.20;;
9720;SDS011;4899;42.644;23.366;2022-08-11T08:52:44;4.13;;;3.83;;
9720;SDS011;4899;42.644;23.366;2022-08-11T08:55:21;3.33;;;3.03;;
9720;SDS011;4899;42.644;23.366;2022-08-11T08:57:49;3.97;;;3.67;;
9720;SDS011;4899;42.644;23.366;2022-08-11T09:00:19;3.83;;;3.43;;
9720;SDS011;4899;42.644;23.366;2022-08-11T09:02:47;4.77;;;3.73;;
9720;SDS011;4899;42.644;23.366;2022-08-11T09:05:15;5.20;;;4.70;;
9720;SDS011;4899;42.644;23.366;2022-08-11T09:07:44;3.97;;;3.67;;
9720;SDS011;4899;42.644;23.366;2022-08-11T09:10:12;4.37;;;4.07;;
9720;SDS011;4899;42.644;23.366;2022-08-11T09:12:45;4.30;;;3.80;;
9720;SDS011;4899;42.644;23.366;2022-08-11T09:15:13;4.57;;;4.17;;
9720;SDS011;4899;42.644;23.366;2022-08-11T09:17:42;4.40;;;4.10;;
9720;SDS011;4899;42.644;23.366;2022-08-11T09:20:12;5.17;;;3.90;;
9720;SDS011;4899;42.644;23.366;2022-08-11T09:22:43;3.53;;;3.33;;
9720;SDS011;4899;42.644;23.366;2022-08-11T09:25:29;4.40;;;4.00;;
9720;SDS011;4899;42.644;23.366;2022-08-11T09:28:16;4.40;;;4.00;;
9720;SDS011;4899;42.644;23.366;2022-08-11T09:30:46;4.17;;;3.77;;
9720;SDS011;4899;42.644;23.366;2022-08-11T09:33:18;4.07;;;3.73;;
9720;SDS011;4899;42.644;23.366;2022-08-11T09:35:46;4.60;;;4.17;;
9720;SDS011;4899;42.644;23.366;2022-08-11T09:38:15;3.77;;;3.47;;
9720;SDS011;4899;42.644;23.366;2022-08-11T09:41:01;4.27;;;3.90;;
9720;SDS011;4899;42.644;23.366;2022-08-11T09:43:32;4.63;;;4.23;;
9720;SDS011;4899;42.644;23.366;2022-08-11T09:46:20;4.30;;;3.90;;
9720;SDS011;4899;42.644;23.366;2022-08-11T09:48:50;4.87;;;3.90;;
9720;SDS011;4899;42.644;23.366;2022-08-11T09:51:21;4.30;;;4.00;;
9720;SDS011;4899;42.644;23.366;2022-08-11T09:53:48;5.07;;;3.63;;
9720;SDS011;4899;42.644;23.366;2022-08-11T09:56:16;4.00;;;3.57;;
9720;SDS011;4899;42.644;23.366;2022-08-11T09:59:03;4.90;;;3.33;;
9720;SDS011;4899;42.644;23.366;2022-08-11T10:01:33;3.70;;;3.40;;
9720;SDS011;4899;42.644;23.366;2022-08-11T10:04:07;3.70;;;3.47;;
9720;SDS011;4899;42.644;23.366;2022-08-11T10:06:40;3.83;;;3.53;;
9720;SDS011;4899;42.644;23.366;2022-08-11T10:09:27;4.43;;;3.80;;
9720;SDS011;4899;42.644;23.366;2022-08-11T10:12:04;3.50;;;3.23;;
9720;SDS011;4899;42.644;23.366;2022-08-11T10:14:38;4.23;;;3.90;;
9720;SDS011;4899;42.644;23.366;2022-08-11T10:17:25;4.77;;;4.27;;
9720;SDS011;4899;42.644;23.366;2022-08-11T10:19:56;4.40;;;4.00;;
9720;SDS011;4899;42.644;23.366;2022-08-11T10:22:27;4.37;;;3.57;;
9720;SDS011;4899;42.644;23.366;2022-08-11T10:25:12;4.67;;;3.73;;
9720;SDS011;4899;42.644;23.366;2022-08-11T10:27:57;4.13;;;3.83;;
9720;SDS011;4899;42.644;23.366;2022-08-11T10:30:27;4.30;;;4.00;;
9720;SDS011;4899;42.644;23.366;2022-08-11T10:33:11;3.50;;;3.20;;
9720;SDS011;4899;42.644;23.366;2022-08-11T10:35:57;4.47;;;4.17;;
9720;SDS011;4899;42.644;23.366;2022-08-11T10:38:25;4.47;;;4.07;;
9720;SDS011;4899;42.644;23.366;2022-08-11T10:40:53;5.70;;;4.53;;
9720;SDS011;4899;42.644;23.366;2022-08-11T10:43:35;4.80;;;4.30;;
9720;SDS011;4899;42.644;23.366;2022-08-11T10:48:53;5.07;;;4.67;;
9720;SDS011;4899;42.644;23.366;2022-08-11T10:51:21;5.00;;;4.50;;
9720;SDS011;4899;42.644;23.366;2022-08-11T10:54:07;4.80;;;4.40;;
9720;SDS011;4899;42.644;23.366;2022-08-11T10:56:51;4.77;;;4.33;;
9720;SDS011;4899;42.644;23.366;2022-08-11T10:59:37;4.70;;;4.30;;
9720;SDS011;4899;42.644;23.366;2022-08-11T11:02:08;5.87;;;4.20;;
9720;SDS011;4899;42.644;23.366;2022-08-11T11:04:42;4.10;;;3.70;;
9720;SDS011;4899;42.644;23.366;2022-08-11T11:07:28;5.65;;;3.85;;
9720;SDS011;4899;42.644;23.366;2022-08-11T11:10:03;4.63;;;4.15;;
9720;SDS011;4899;42.644;23.366;2022-08-11T11:12:34;4.45;;;4.05;;
9720;SDS011;4899;42.644;23.366;2022-08-11T11:15:22;4.82;;;3.50;;
9720;SDS011;4899;42.644;23.366;2022-08-11T11:18:13;4.47;;;3.42;;
9720;SDS011;4899;42.644;23.366;2022-08-11T11:20:46;5.40;;;3.35;;
9720;SDS011;4899;42.644;23.366;2022-08-11T11:23:17;3.35;;;3.15;;
9720;SDS011;4899;42.644;23.366;2022-08-11T11:31:54;4.65;;;3.45;;
9720;SDS011;4899;42.644;23.366;2022-08-11T11:34:35;3.50;;;3.30;;
9720;SDS011;4899;42.644;23.366;2022-08-11T11:37:22;3.58;;;3.38;;
9720;SDS011;4899;42.644;23.366;2022-08-11T11:39:50;3.53;;;3.33;;
9720;SDS011;4899;42.644;23.366;2022-08-11T11:42:19;3.92;;;3.60;;
9720;SDS011;4899;42.644;23.366;2022-08-11T11:44:47;3.92;;;3.63;;
9720;SDS011;4899;42.644;23.366;2022-08-11T11:47:14;4.65;;;3.35;;
9720;SDS011;4899;42.644;23.366;2022-08-11T11:49:45;3.42;;;3.13;;
9720;SDS011;4899;42.644;23.366;2022-08-11T11:52:14;3.33;;;3.03;;
9720;SDS011;4899;42.644;23.366;2022-08-11T11:54:43;4.15;;;3.17;;
9720;SDS011;4899;42.644;23.366;2022-08-11T11:57:15;3.85;;;3.45;;
9720;SDS011;4899;42.644;23.366;2022-08-11T12:00:00;5.15;;;3.33;;
9720;SDS011;4899;42.644;23.366;2022-08-11T12:02:48;7.50;;;3.70;;
9720;SDS011;4899;42.644;23.366;2022-08-11T12:05:17;4.00;;;3.33;;
9720;SDS011;4899;42.644;23.366;2022-08-11T12:07:45;4.93;;;4.00;;
9720;SDS011;4899;42.644;23.366;2022-08-11T12:10:30;4.05;;;3.65;;
9720;SDS011;4899;42.644;23.366;2022-08-11T12:12:58;4.30;;;3.90;;
9720;SDS011;4899;42.644;23.366;2022-08-11T12:15:42;10.65;;;3.80;;
9720;SDS011;4899;42.644;23.366;2022-08-11T12:18:11;5.47;;;3.70;;
9720;SDS011;4899;42.644;23.366;2022-08-11T12:20:39;4.32;;;4.03;;
9720;SDS011;4899;42.644;23.366;2022-08-11T12:23:06;6.35;;;3.45;;
9720;SDS011;4899;42.644;23.366;2022-08-11T12:25:47;4.95;;;3.78;;
9720;SDS011;4899;42.644;23.366;2022-08-11T12:28:32;4.60;;;3.58;;
9720;SDS011;4899;42.644;23.366;2022-08-11T12:30:59;4.35;;;4.05;;
9720;SDS011;4899;42.644;23.366;2022-08-11T12:33:26;5.70;;;4.03;;
9720;SDS011;4899;42.644;23.366;2022-08-11T12:35:56;3.97;;;3.58;;
9720;SDS011;4899;42.644;23.366;2022-08-11T12:38:25;5.13;;;4.20;;
9720;SDS011;4899;42.644;23.366;2022-08-11T12:40:52;3.63;;;3.33;;
9720;SDS011;4899;42.644;23.366;2022-08-11T12:43:37;4.20;;;3.63;;
9720;SDS011;4899;42.644;23.366;2022-08-11T12:46:28;3.60;;;3.30;;
9720;SDS011;4899;42.644;23.366;2022-08-11T12:48:57;3.93;;;3.60;;
9720;SDS011;4899;42.644;23.366;2022-08-11T12:51:46;5.13;;;3.80;;
9720;SDS011;4899;42.644;23.366;2022-08-11T12:54:27;3.20;;;3.00;;
9720;SDS011;4899;42.644;23.366;2022-08-11T12:56:59;3.33;;;3.13;;
9720;SDS011;4899;42.644;23.366;2022-08-11T12:59:45;3.63;;;3.33;;
9720;SDS011;4899;42.644;23.366;2022-08-11T13:02:30;6.22;;;3.42;;
9720;SDS011;4899;42.644;23.366;2022-08-11T13:05:16;2.88;;;2.60;;
9720;SDS011;4899;42.644;23.366;2022-08-11T13:07:45;4.13;;;2.80;;
9720;SDS011;4899;42.644;23.366;2022-08-11T13:10:14;3.47;;;3.28;;
9720;SDS011;4899;42.644;23.366;2022-08-11T13:13:04;3.38;;;3.08;;
9720;SDS011;4899;42.644;23.366;2022-08-11T13:15:32;3.20;;;3.00;;
9720;SDS011;4899;42.644;23.366;2022-08-11T13:18:01;3.38;;;3.08;;
9720;SDS011;4899;42.644;23.366;2022-08-11T13:20:32;3.25;;;2.95;;
9720;SDS011;4899;42.644;23.366;2022-08-11T13:23:01;4.05;;;3.53;;
9720;SDS011;4899;42.644;23.366;2022-08-11T13:25:30;3.72;;;3.20;;
9720;SDS011;4899;42.644;23.366;2022-08-11T13:27:58;3.83;;;3.10;;
9720;SDS011;4899;42.644;23.366;2022-08-11T13:30:27;10.50;;;3.63;;
9720;SDS011;4899;42.644;23.366;2022-08-11T13:33:14;4.43;;;4.10;;
9720;SDS011;4899;42.644;23.366;2022-08-11T13:35:42;8.52;;;3.15;;
9720;SDS011;4899;42.644;23.366;2022-08-11T13:38:15;4.07;;;3.75;;
9720;SDS011;4899;42.644;23.366;2022-08-11T13:40:44;3.47;;;2.88;;
9720;SDS011;4899;42.644;23.366;2022-08-11T13:43:12;3.33;;;3.08;;
9720;SDS011;4899;42.644;23.366;2022-08-11T13:45:39;3.47;;;3.17;;
9720;SDS011;4899;42.644;23.366;2022-08-11T13:48:08;3.08;;;2.88;;
9720;SDS011;4899;42.644;23.366;2022-08-11T13:50:37;3.05;;;2.80;;
9720;SDS011;4899;42.644;23.366;2022-08-11T13:53:23;3.47;;;2.92;;
9720;SDS011;4899;42.644;23.366;2022-08-11T13:55:51;3.25;;;3.00;;
9720;SDS011;4899;42.644;23.366;2022-08-11T13:58:19;2.85;;;2.65;;
9720;SDS011;4899;42.644;23.366;2022-08-11T14:00:49;3.35;;;3.05;;
9720;SDS011;4899;42.644;23.366;2022-08-11T14:03:18;2.83;;;2.63;;
9720;SDS011;4899;42.644;23.366;2022-08-11T14:05:50;2.95;;;2.75;;
9720;SDS011;4899;42.644;23.366;2022-08-11T14:08:26;2.90;;;2.70;;
9720;SDS011;4899;42.644;23.366;2022-08-11T14:10:58;3.17;;;2.67;;
9720;SDS011;4899;42.644;23.366;2022-08-11T14:13:44;2.75;;;2.30;;
9720;SDS011;4899;42.644;23.366;2022-08-11T14:16:15;2.60;;;2.40;;
9720;SDS011;4899;42.644;23.366;2022-08-11T14:18:46;3.78;;;2.40;;
9720;SDS011;4899;42.644;23.366;2022-08-11T14:21:17;2.70;;;2.35;;
9720;SDS011;4899;42.644;23.366;2022-08-11T14:24:07;3.28;;;2.50;;
9720;SDS011;4899;42.644;23.366;2022-08-11T14:26:35;2.38;;;2.17;;
9720;SDS011;4899;42.644;23.366;2022-08-11T14:29:05;2.30;;;2.20;;
9720;SDS011;4899;42.644;23.366;2022-08-11T14:31:35;2.25;;;2.15;;
9720;SDS011;4899;42.644;23.366;2022-08-11T14:34:05;6.90;;;2.83;;
9720;SDS011;4899;42.644;23.366;2022-08-11T14:36:35;2.55;;;2.35;;
9720;SDS011;4899;42.644;23.366;2022-08-11T14:39:05;2.50;;;2.30;;
9720;SDS011;4899;42.644;23.366;2022-08-11T14:41:37;3.88;;;2.08;;
9720;SDS011;4899;42.644;23.366;2022-08-11T14:44:23;2.67;;;2.40;;
9720;SDS011;4899;42.644;23.366;2022-08-11T14:47:09;2.97;;;2.63;;
9720;SDS011;4899;42.644;23.366;2022-08-11T14:49:39;3.00;;;2.80;;
9720;SDS011;4899;42.644;23.366;2022-08-11T14:52:07;4.32;;;2.88;;
9720;SDS011;4899;42.644;23.366;2022-08-11T14:54:42;2.80;;;2.65;;
9720;SDS011;4899;42.644;23.366;2022-08-11T14:57:28;4.47;;;2.67;;
9720;SDS011;4899;42.644;23.366;2022-08-11T14:59:57;3.72;;;2.88;;
9720;SDS011;4899;42.644;23.366;2022-08-11T15:02:28;3.65;;;2.63;;
9720;SDS011;4899;42.644;23.366;2022-08-11T15:05:13;3.60;;;2.80;;
9720;SDS011;4899;42.644;23.366;2022-08-11T15:07:40;3.05;;;2.70;;
9720;SDS011;4899;42.644;23.366;2022-08-11T15:10:10;3.47;;;3.17;;
9720;SDS011;4899;42.644;23.366;2022-08-11T15:12:38;2.88;;;2.67;;
9720;SDS011;4899;42.644;23.366;2022-08-11T15:15:06;3.63;;;3.33;;
9720;SDS011;4899;42.644;23.366;2022-08-11T15:17:57;4.05;;;3.65;;
9720;SDS011;4899;42.644;23.366;2022-08-11T15:20:26;3.60;;;3.30;;
9720;SDS011;4899;42.644;23.366;2022-08-11T15:23:12;3.83;;;3.53;;
9720;SDS011;4899;42.644;23.366;2022-08-11T15:25:59;3.85;;;3.08;;
9720;SDS011;4899;42.644;23.366;2022-08-11T15:28:29;5.65;;;3.63;;
9720;SDS011;4899;42.644;23.366;2022-08-11T15:31:17;3.10;;;2.90;;
9720;SDS011;4899;42.644;23.366;2022-08-11T15:34:05;3.83;;;3.00;;
9720;SDS011;4899;42.644;23.366;2022-08-11T15:36:54;3.22;;;2.92;;
9720;SDS011;4899;42.644;23.366;2022-08-11T15:39:46;3.10;;;2.90;;
9720;SDS011;4899;42.644;23.366;2022-08-11T15:42:34;3.20;;;3.00;;
9720;SDS011;4899;42.644;23.366;2022-08-11T15:45:23;3.63;;;3.33;;
9720;SDS011;4899;42.644;23.366;2022-08-11T15:48:09;3.33;;;3.03;;
9720;SDS011;4899;42.644;23.366;2022-08-11T15:50:41;3.30;;;3.10;;
9720;SDS011;4899;42.644;23.366;2022-08-11T15:53:17;5.10;;;4.60;;
9720;SDS011;4899;42.644;23.366;2022-08-11T15:55:50;8.47;;;5.83;;
9720;SDS011;4899;42.644;23.366;2022-08-11T15:58:20;3.90;;;3.60;;
9720;SDS011;4899;42.644;23.366;2022-08-11T16:01:08;4.63;;;3.27;;
9720;SDS011;4899;42.644;23.366;2022-08-11T16:03:59;7.10;;;6.47;;
9720;SDS011;4899;42.644;23.366;2022-08-11T16:06:40;8.20;;;7.37;;
9720;SDS011;4899;42.644;23.366;2022-08-11T16:09:13;7.47;;;3.60;;
9720;SDS011;4899;42.644;23.366;2022-08-11T16:11:42;3.43;;;3.23;;
9720;SDS011;4899;42.644;23.366;2022-08-11T16:14:13;3.50;;;3.07;;
9720;SDS011;4899;42.644;23.366;2022-08-11T16:17:00;3.57;;;3.00;;
9720;SDS011;4899;42.644;23.366;2022-08-11T16:19:30;4.07;;;3.20;;
9720;SDS011;4899;42.644;23.366;2022-08-11T16:22:02;3.83;;;3.50;;
9720;SDS011;4899;42.644;23.366;2022-08-11T16:24:34;3.57;;;3.27;;
9720;SDS011;4899;42.644;23.366;2022-08-11T16:27:04;3.87;;;3.50;;
9720;SDS011;4899;42.644;23.366;2022-08-11T16:29:34;10.07;;;9.20;;
9720;SDS011;4899;42.644;23.366;2022-08-11T16:32:03;5.10;;;4.20;;
9720;SDS011;4899;42.644;23.366;2022-08-11T16:34:45;7.37;;;6.67;;
9720;SDS011;4899;42.644;23.366;2022-08-11T16:37:33;3.60;;;3.30;;
9720;SDS011;4899;42.644;23.366;2022-08-11T16:40:19;4.40;;;4.00;;
9720;SDS011;4899;42.644;23.366;2022-08-11T16:42:48;3.47;;;3.17;;
9720;SDS011;4899;42.644;23.366;2022-08-11T16:45:34;6.60;;;6.00;;
9720;SDS011;4899;42.644;23.366;2022-08-11T16:48:20;14.50;;;12.53;;
9720;SDS011;4899;42.644;23.366;2022-08-11T16:50:48;8.27;;;6.13;;
9720;SDS011;4899;42.644;23.366;2022-08-11T16:53:16;4.20;;;3.70;;
9720;SDS011;4899;42.644;23.366;2022-08-11T16:55:43;3.77;;;3.47;;
9720;SDS011;4899;42.644;23.366;2022-08-11T16:58:12;6.70;;;4.30;;
9720;SDS011;4899;42.644;23.366;2022-08-11T17:00:58;3.00;;;2.80;;
9720;SDS011;4899;42.644;23.366;2022-08-11T17:03:28;4.60;;;3.93;;
9720;SDS011;4899;42.644;23.366;2022-08-11T17:06:16;3.77;;;3.47;;
9720;SDS011;4899;42.644;23.366;2022-08-11T17:09:03;8.53;;;6.87;;
9720;SDS011;4899;42.644;23.366;2022-08-11T17:11:49;7.00;;;5.27;;
9720;SDS011;4899;42.644;23.366;2022-08-11T17:14:39;5.03;;;4.43;;
9720;SDS011;4899;42.644;23.366;2022-08-11T17:17:11;4.17;;;3.87;;
9720;SDS011;4899;42.644;23.366;2022-08-11T17:19:41;4.00;;;3.70;;
9720;SDS011;4899;42.644;23.366;2022-08-11T17:22:13;5.17;;;4.77;;